createdAt,value
2019-04-06T00:01:45.114Z,8.87
2019-04-06T00:04:15.300Z,11.17
2019-04-06T00:06:45.503Z,11.00
2019-04-06T00:09:15.687Z,11.17
2019-04-06T00:11:45.871Z,10.37
2019-04-06T00:14:16.133Z,12.43
2019-04-06T00:16:47.234Z,13.77
2019-04-06T00:19:17.412Z,11.57
2019-04-06T00:21:47.660Z,12.40
2019-04-06T00:24:17.930Z,14.10
2019-04-06T00:26:48.197Z,15.13
2019-04-06T00:29:18.412Z,16.03
2019-04-06T00:31:57.983Z,16.30
2019-04-06T00:34:28.124Z,14.20
2019-04-06T00:36:58.263Z,14.87
2019-04-06T00:39:28.496Z,17.90
2019-04-06T00:41:58.601Z,14.70
2019-04-06T00:44:28.814Z,15.87
2019-04-06T00:46:58.967Z,13.30
2019-04-06T00:49:29.105Z,15.40
2019-04-06T00:51:59.238Z,16.13
2019-04-06T00:54:29.454Z,13.53
2019-04-06T00:56:59.715Z,12.83
2019-04-06T00:59:29.962Z,12.50
2019-04-06T01:02:00.160Z,12.17
2019-04-06T01:04:30.277Z,12.20
2019-04-06T01:07:00.508Z,14.73
2019-04-06T01:09:30.775Z,14.83
2019-04-06T01:12:00.998Z,13.13
2019-04-06T01:14:31.287Z,13.67
2019-04-06T01:17:01.449Z,15.07
2019-04-06T01:19:31.687Z,12.60
2019-04-06T01:22:01.907Z,13.57
2019-04-06T01:24:32.109Z,12.23
2019-04-06T01:27:02.347Z,16.43
2019-04-06T01:29:32.452Z,13.23
2019-04-06T01:32:02.692Z,14.80
2019-04-06T01:34:32.809Z,15.83
2019-04-06T01:37:02.973Z,12.80
2019-04-06T01:39:33.139Z,13.20
2019-04-06T01:42:04.090Z,14.27
2019-04-06T01:44:34.326Z,14.23
2019-04-06T01:47:04.555Z,15.17
2019-04-06T01:49:34.864Z,15.03
2019-04-06T01:52:05.084Z,15.57
2019-04-06T01:54:36.318Z,17.10
2019-04-06T01:57:06.758Z,16.30
2019-04-06T01:59:36.972Z,14.90
2019-04-06T02:02:12.041Z,17.10
2019-04-06T02:04:42.200Z,17.00
2019-04-06T02:07:12.469Z,20.20
2019-04-06T02:09:42.593Z,14.10
2019-04-06T02:12:12.757Z,17.40
2019-04-06T02:14:42.889Z,15.00
2019-04-06T02:17:13.099Z,15.77
2019-04-06T02:19:43.171Z,16.57
2019-04-06T02:22:13.374Z,14.20
2019-04-06T02:24:43.494Z,17.70
2019-04-06T02:27:14.561Z,15.07
2019-04-06T02:29:45.820Z,17.37
2019-04-06T02:32:37.234Z,16.30
2019-04-06T02:35:25.290Z,16.37
2019-04-06T02:38:05.002Z,16.13
2019-04-06T02:40:39.916Z,18.60
2019-04-06T02:43:13.786Z,15.93
2019-04-06T02:45:44.856Z,20.60
2019-04-06T02:48:15.172Z,20.10
2019-04-06T02:50:45.371Z,17.07
2019-04-06T02:53:15.546Z,22.37
2019-04-06T02:55:45.713Z,16.83
2019-04-06T02:58:16.044Z,17.40
2019-04-06T03:00:46.492Z,18.33
2019-04-06T03:03:16.931Z,21.17
2019-04-06T03:05:47.290Z,19.10
2019-04-06T03:08:18.629Z,17.23
2019-04-06T03:10:48.958Z,20.53
2019-04-06T03:13:19.147Z,21.37
2019-04-06T03:15:49.423Z,18.60
2019-04-06T03:18:19.544Z,20.43
2019-04-06T03:20:49.762Z,19.27
2019-04-06T03:23:19.984Z,20.47
2019-04-06T03:25:50.216Z,20.93
2019-04-06T03:28:20.352Z,20.07
2019-04-06T03:30:50.488Z,17.47
2019-04-06T03:33:20.700Z,19.47
2019-04-06T03:35:51.825Z,20.57
2019-04-06T03:38:22.164Z,19.63
2019-04-06T03:40:52.353Z,18.50
2019-04-06T03:43:22.506Z,19.97
2019-04-06T03:45:52.666Z,20.62
2019-04-06T03:48:22.807Z,16.03
2019-04-06T03:50:52.838Z,18.93
2019-04-06T03:53:22.910Z,18.20
2019-04-06T03:55:53.011Z,18.98
2019-04-06T03:58:23.055Z,20.90
2019-04-06T04:00:53.409Z,19.80
2019-04-06T04:03:23.611Z,21.37
2019-04-06T04:05:53.717Z,17.43
2019-04-06T04:08:23.712Z,20.97
2019-04-06T04:10:53.714Z,20.90
2019-04-06T04:13:23.737Z,23.63
2019-04-06T04:15:56.532Z,17.53
2019-04-06T04:18:25.922Z,22.30
2019-04-06T04:20:56.177Z,20.80
2019-04-06T04:23:26.333Z,19.10
2019-04-06T04:25:56.608Z,23.20
2019-04-06T04:28:26.822Z,23.53
2019-04-06T04:30:56.821Z,20.17
2019-04-06T04:33:26.867Z,24.27
2019-04-06T04:35:56.926Z,22.40
2019-04-06T04:38:27.101Z,22.23
2019-04-06T04:40:57.144Z,23.97
2019-04-06T04:43:27.112Z,23.87
2019-04-06T04:45:57.180Z,21.43
2019-04-06T04:48:34.099Z,22.07
2019-04-06T04:51:04.556Z,21.97
2019-04-06T04:53:40.534Z,23.40
2019-04-06T04:56:10.699Z,25.97
2019-04-06T04:58:40.991Z,25.30
2019-04-06T05:01:11.089Z,26.53
2019-04-06T05:03:41.180Z,25.67
2019-04-06T05:06:12.882Z,25.57
2019-04-06T05:08:43.007Z,25.53
2019-04-06T05:11:13.372Z,22.60
2019-04-06T05:13:43.671Z,24.57
2019-04-06T05:16:14.529Z,22.90
2019-04-06T05:18:44.773Z,25.70
2019-04-06T05:21:15.169Z,26.10
2019-04-06T05:23:45.451Z,25.03
2019-04-06T05:26:15.602Z,22.83
2019-04-06T05:28:45.712Z,23.43
2019-04-06T05:31:18.787Z,26.03
2019-04-06T05:33:48.935Z,23.73
2019-04-06T05:36:18.941Z,22.90
2019-04-06T05:38:49.378Z,23.20
2019-04-06T05:41:21.562Z,25.63
2019-04-06T05:43:52.489Z,22.17
2019-04-06T05:46:22.633Z,25.10
2019-04-06T05:48:53.106Z,25.63
2019-04-06T05:51:23.256Z,25.27
2019-04-06T05:53:53.357Z,22.37
2019-04-06T05:56:23.504Z,20.83
2019-04-06T05:58:53.831Z,26.53
2019-04-06T06:01:23.930Z,25.33
2019-04-06T06:03:53.938Z,25.77
2019-04-06T06:06:23.955Z,24.40
2019-04-06T06:08:53.950Z,26.80
2019-04-06T06:11:24.482Z,27.10
2019-04-06T06:13:54.531Z,26.57
2019-04-06T06:16:24.595Z,26.23
2019-04-06T06:18:54.730Z,31.60
2019-04-06T06:21:25.332Z,30.53
2019-04-06T06:23:55.389Z,34.23
2019-04-06T06:26:25.712Z,31.53
2019-04-06T06:28:57.719Z,33.43
2019-04-06T06:31:27.867Z,30.47
2019-04-06T06:33:58.007Z,30.27
2019-04-06T06:36:28.052Z,28.73
2019-04-06T06:38:58.059Z,35.43
2019-04-06T06:41:28.191Z,30.30
2019-04-06T06:43:58.342Z,29.27
2019-04-06T06:46:28.421Z,34.23
2019-04-06T06:48:58.906Z,33.33
2019-04-06T06:51:29.387Z,32.10
2019-04-06T06:53:59.621Z,35.83
2019-04-06T06:56:29.907Z,30.33
2019-04-06T06:59:01.121Z,30.87
2019-04-06T07:01:31.205Z,33.87
2019-04-06T07:04:01.183Z,36.37
2019-04-06T07:06:31.217Z,36.60
2019-04-06T07:09:01.364Z,32.53
2019-04-06T07:11:33.052Z,37.93
2019-04-06T07:14:04.096Z,41.70
2019-04-06T07:16:34.315Z,37.73
2019-04-06T07:19:04.700Z,36.70
2019-04-06T07:21:34.826Z,35.80
2019-04-06T07:24:05.115Z,36.47
2019-04-06T07:26:35.669Z,37.50
2019-04-06T07:29:06.008Z,32.77
2019-04-06T07:31:36.329Z,32.53
2019-04-06T07:34:06.488Z,37.53
2019-04-06T07:36:36.559Z,30.70
2019-04-06T07:39:07.670Z,36.77
2019-04-06T07:41:37.653Z,34.77
2019-04-06T07:44:07.771Z,35.70
2019-04-06T07:46:38.317Z,33.73
2019-04-06T07:49:10.326Z,31.90
2019-04-06T07:51:40.502Z,33.10
2019-04-06T07:54:10.507Z,32.03
2019-04-06T07:56:40.534Z,33.87
2019-04-06T07:59:10.533Z,31.20
2019-04-06T08:01:40.533Z,33.10
2019-04-06T08:04:10.533Z,32.40
2019-04-06T08:06:40.873Z,31.43
2019-04-06T08:09:10.982Z,31.83
2019-04-06T08:11:40.955Z,30.80
2019-04-06T08:14:11.032Z,29.77
2019-04-06T08:16:41.006Z,31.27
2019-04-06T08:19:11.001Z,28.97
2019-04-06T08:21:41.166Z,31.50
2019-04-06T08:24:13.264Z,30.37
2019-04-06T08:26:43.282Z,26.67
2019-04-06T08:29:13.496Z,30.37
2019-04-06T08:31:44.145Z,30.43
2019-04-06T08:34:14.256Z,27.97
2019-04-06T08:36:44.314Z,28.87
2019-04-06T08:39:14.263Z,28.90
2019-04-06T08:41:44.393Z,27.97
2019-04-06T08:44:16.406Z,28.03
2019-04-06T08:46:46.643Z,28.50
2019-04-06T08:49:17.866Z,27.67
2019-04-06T08:51:47.933Z,28.67
2019-04-06T08:54:17.908Z,26.27
2019-04-06T08:56:47.891Z,27.07
2019-04-06T08:59:18.232Z,29.60
2019-04-06T09:01:48.260Z,28.37
2019-04-06T09:04:18.696Z,29.80
2019-04-06T09:06:48.841Z,28.13
2019-04-06T09:09:18.902Z,29.30
2019-04-06T09:11:48.910Z,26.10
2019-04-06T09:14:18.854Z,28.70
2019-04-06T09:16:48.905Z,26.63
2019-04-06T09:19:18.976Z,31.57
2019-04-06T09:21:49.142Z,28.43
2019-04-06T09:24:20.241Z,26.23
2019-04-06T09:26:50.267Z,28.10
2019-04-06T09:29:24.154Z,28.47
2019-04-06T09:31:52.019Z,28.23
2019-04-06T09:34:22.250Z,25.53
2019-04-06T09:36:52.355Z,29.27
2019-04-06T09:39:22.472Z,27.70
2019-04-06T09:41:52.518Z,29.67
2019-04-06T09:44:44.541Z,27.77
2019-04-06T09:47:46.212Z,29.30
2019-04-06T09:50:44.458Z,28.03
2019-04-06T09:53:33.754Z,27.60
2019-04-06T09:56:42.795Z,28.30
2019-04-06T09:59:36.249Z,26.50
2019-04-06T10:02:34.063Z,25.67
2019-04-06T10:05:14.622Z,22.80
2019-04-06T10:08:04.377Z,27.00
2019-04-06T10:10:57.084Z,28.63
2019-04-06T10:13:46.562Z,26.87
2019-04-06T10:16:38.756Z,25.70
2019-04-06T10:19:38.662Z,29.00
2019-04-06T10:22:37.054Z,28.13
2019-04-06T10:28:40.226Z,25.87
2019-04-06T10:31:28.278Z,26.67
2019-04-06T10:34:08.938Z,26.43
2019-04-06T10:36:45.517Z,28.20
2019-04-06T10:39:34.746Z,28.03
2019-04-06T10:42:17.726Z,27.00
2019-04-06T10:45:07.270Z,27.97
2019-04-06T10:47:55.784Z,27.63
2019-04-06T10:51:04.014Z,27.63
2019-04-06T10:53:40.080Z,26.13
2019-04-06T10:56:21.416Z,29.93
2019-04-06T10:59:09.266Z,28.37
2019-04-06T11:01:48.853Z,29.07
2019-04-06T11:04:32.117Z,32.03
2019-04-06T11:07:10.515Z,30.27
2019-04-06T11:09:54.115Z,30.20
2019-04-06T11:12:37.772Z,26.87
2019-04-06T11:15:23.835Z,31.40
2019-04-06T11:18:05.859Z,30.50
2019-04-06T11:20:43.685Z,28.07
2019-04-06T11:23:31.486Z,29.55
2019-04-06T11:26:19.225Z,32.13
2019-04-06T11:29:08.624Z,30.17
2019-04-06T11:31:44.381Z,30.70
2019-04-06T11:34:32.530Z,30.97
2019-04-06T11:37:20.752Z,30.70
2019-04-06T11:40:22.323Z,30.13
2019-04-06T11:43:11.168Z,30.33
2019-04-06T11:46:02.073Z,29.27
2019-04-06T11:48:54.484Z,29.90
2019-04-06T11:51:42.758Z,29.67
2019-04-06T11:54:31.973Z,29.23
2019-04-06T11:57:23.872Z,30.07
2019-04-06T12:00:10.871Z,26.27
2019-04-06T12:03:06.260Z,30.97
2019-04-06T12:06:02.321Z,28.57
2019-04-06T12:09:07.268Z,30.87
2019-04-06T12:11:55.517Z,27.20
2019-04-06T12:14:43.480Z,32.43
2019-04-06T12:17:35.649Z,28.40
2019-04-06T12:20:25.172Z,27.60
2019-04-06T12:23:23.450Z,29.70
2019-04-06T12:26:09.452Z,30.77
2019-04-06T12:29:07.827Z,28.80
2019-04-06T12:31:59.166Z,31.20
2019-04-06T12:35:01.924Z,31.53
2019-04-06T12:37:41.550Z,26.93
2019-04-06T12:40:31.890Z,29.43
2019-04-06T12:43:25.337Z,27.80
2019-04-06T12:46:20.396Z,29.97
2019-04-06T12:49:10.236Z,29.03
2019-04-06T12:51:48.747Z,31.03
2019-04-06T12:54:37.474Z,28.90
2019-04-06T12:57:26.475Z,32.83
2019-04-06T13:00:22.043Z,28.90
2019-04-06T13:03:14.673Z,29.77
2019-04-06T13:05:51.048Z,31.33
2019-04-06T13:08:37.645Z,28.67
2019-04-06T13:11:32.004Z,31.37
2019-04-06T13:14:16.915Z,29.03
2019-04-06T13:17:09.497Z,26.50
2019-04-06T13:20:00.176Z,29.13
2019-04-06T13:22:44.256Z,28.90
2019-04-06T13:25:32.346Z,27.13
2019-04-06T13:28:18.711Z,28.80
2019-04-06T13:31:16.597Z,27.97
2019-04-06T13:34:09.044Z,27.50
2019-04-06T13:36:58.367Z,27.43
2019-04-06T13:39:50.285Z,30.53
2019-04-06T13:42:44.078Z,28.67
2019-04-06T13:45:22.464Z,28.03
2019-04-06T13:48:21.289Z,25.90
2019-04-06T13:51:01.118Z,29.37
2019-04-06T13:54:02.338Z,27.23
2019-04-06T13:57:06.925Z,30.67
2019-04-06T13:59:49.960Z,28.17
2019-04-06T14:02:26.982Z,28.65
2019-04-06T14:05:34.935Z,30.20
2019-04-06T14:08:21.363Z,25.80
2019-04-06T14:10:57.771Z,28.00
2019-04-06T14:13:45.520Z,32.80
2019-04-06T14:16:23.919Z,31.07
2019-04-06T14:19:12.340Z,28.37
2019-04-06T14:21:52.309Z,25.57
2019-04-06T14:24:35.251Z,26.80
2019-04-06T14:27:33.768Z,29.25
2019-04-06T14:30:12.343Z,27.10
2019-04-06T14:33:00.310Z,29.97
2019-04-06T14:35:48.426Z,28.50
2019-04-06T14:38:41.133Z,28.53
2019-04-06T14:41:26.321Z,30.00
2019-04-06T14:44:16.549Z,30.03
2019-04-06T14:47:03.222Z,28.43
2019-04-06T14:49:54.482Z,26.10
2019-04-06T14:52:46.505Z,28.03
2019-04-06T14:55:24.468Z,26.10
2019-04-06T14:58:15.736Z,24.17
2019-04-06T15:00:54.966Z,27.00
2019-04-06T15:03:35.138Z,25.53
2019-04-06T15:06:16.330Z,25.17
2019-04-06T15:09:17.718Z,26.47
2019-04-06T15:12:03.748Z,26.80
2019-04-06T15:14:44.000Z,30.07
2019-04-06T15:17:20.570Z,26.10
2019-04-06T15:20:05.835Z,24.40
2019-04-06T15:23:00.792Z,27.00
2019-04-06T15:25:49.465Z,27.37
2019-04-06T15:28:27.973Z,30.63
2019-04-06T15:31:23.399Z,25.87
2019-04-06T15:34:02.753Z,26.87
2019-04-06T15:36:38.473Z,27.63
2019-04-06T15:39:18.541Z,26.30
2019-04-06T15:42:10.820Z,22.37
2019-04-06T15:44:53.748Z,25.97
2019-04-06T15:47:43.428Z,24.27
2019-04-06T15:50:25.836Z,26.67
2019-04-06T15:53:12.134Z,24.40
2019-04-06T15:55:48.671Z,24.30
2019-04-06T15:58:38.106Z,23.80
2019-04-06T16:01:35.006Z,24.23
2019-04-06T16:04:27.638Z,26.90
2019-04-06T16:07:15.613Z,27.10
2019-04-06T16:10:07.892Z,27.37
2019-04-06T16:12:56.178Z,27.97
2019-04-06T16:15:42.673Z,23.47
2019-04-06T16:18:28.124Z,23.43
2019-04-06T16:21:32.886Z,26.87
2019-04-06T16:24:22.969Z,24.07
2019-04-06T16:27:10.740Z,24.07
2019-04-06T16:30:12.288Z,26.00
2019-04-06T16:33:01.577Z,25.30
2019-04-06T16:35:43.811Z,22.07
2019-04-06T16:38:33.228Z,28.30
2019-04-06T16:41:21.016Z,22.73
2019-04-06T16:44:28.497Z,22.47
2019-04-06T16:47:16.936Z,28.40
2019-04-06T16:50:09.502Z,25.87
2019-04-06T16:53:04.848Z,21.90
2019-04-06T16:55:54.506Z,23.40
2019-04-06T16:58:42.619Z,23.33
2019-04-06T17:01:23.914Z,24.40
2019-04-06T17:04:06.111Z,27.07
2019-04-06T17:07:13.760Z,22.77
2019-04-06T17:09:56.810Z,23.70
2019-04-06T17:12:42.174Z,21.77
2019-04-06T17:15:28.569Z,20.20
2019-04-06T17:18:17.748Z,25.57
2019-04-06T17:21:16.034Z,20.70
2019-04-06T17:23:59.623Z,27.77
2019-04-06T17:26:43.706Z,21.63
2019-04-06T17:29:44.941Z,22.43
2019-04-06T17:32:34.745Z,19.80
2019-04-06T17:35:02.663Z,20.57
2019-04-06T17:37:38.126Z,20.23
2019-04-06T17:40:16.071Z,19.47
2019-04-06T17:43:08.605Z,21.20
2019-04-06T17:45:52.164Z,18.60
2019-04-06T17:48:56.897Z,20.70
2019-04-06T17:51:35.346Z,19.30
2019-04-06T17:54:31.074Z,20.90
2019-04-06T17:57:20.438Z,21.30
2019-04-06T18:00:08.684Z,19.97
2019-04-06T18:03:01.737Z,19.47
2019-04-06T18:05:43.887Z,20.27
2019-04-06T18:08:35.326Z,18.70
2019-04-06T18:11:14.931Z,18.87
2019-04-06T18:13:52.959Z,17.90
2019-04-06T18:16:25.947Z,18.13
2019-04-06T18:18:56.790Z,18.27
2019-04-06T18:21:26.805Z,17.70
2019-04-06T18:23:56.782Z,18.30
2019-04-06T18:26:27.012Z,18.13
2019-04-06T18:28:57.405Z,17.53
2019-04-06T18:31:52.633Z,18.13
2019-04-06T18:34:23.824Z,17.80
2019-04-06T18:37:12.269Z,18.20
2019-04-06T18:39:42.423Z,17.30
2019-04-06T18:42:12.508Z,21.50
2019-04-06T18:44:42.592Z,17.07
2019-04-06T18:47:12.947Z,18.00
2019-04-06T18:49:43.083Z,16.43
2019-04-06T18:52:13.338Z,17.47
2019-04-06T18:54:43.878Z,17.50
2019-04-06T18:57:14.381Z,17.63
2019-04-06T18:59:44.823Z,17.43
2019-04-06T19:02:15.128Z,18.10
2019-04-06T19:04:45.251Z,17.67
2019-04-06T19:07:15.470Z,16.37
2019-04-06T19:09:46.489Z,18.07
2019-04-06T19:12:16.701Z,17.50
2019-04-06T19:14:48.087Z,16.67
2019-04-06T19:17:18.724Z,17.63
2019-04-06T19:19:48.909Z,18.33
2019-04-06T19:22:19.350Z,16.63
2019-04-06T19:24:49.946Z,18.93
2019-04-06T19:27:20.555Z,16.47
2019-04-06T19:29:50.905Z,17.63
2019-04-06T19:32:21.564Z,16.93
2019-04-06T19:34:52.151Z,17.93
2019-04-06T19:37:22.661Z,16.80
2019-04-06T19:39:52.920Z,17.80
2019-04-06T19:42:23.219Z,16.50
2019-04-06T19:44:53.636Z,17.47
2019-04-06T19:47:23.705Z,29.83
2019-04-06T19:49:53.742Z,17.43
2019-04-06T19:52:24.800Z,30.63
2019-04-06T19:54:54.809Z,17.83
2019-04-06T19:57:24.995Z,22.20
2019-04-06T19:59:55.174Z,23.03
2019-04-06T20:02:26.251Z,20.40
2019-04-06T20:04:56.446Z,19.60
2019-04-06T20:07:26.479Z,28.57
2019-04-06T20:09:56.783Z,19.77
2019-04-06T20:12:26.973Z,20.40
2019-04-06T20:14:57.232Z,29.60
2019-04-06T20:17:27.690Z,25.93
2019-04-06T20:19:58.808Z,24.80
2019-04-06T20:22:28.761Z,26.53
2019-04-06T20:24:58.905Z,30.00
2019-04-06T20:27:29.079Z,23.07
2019-04-06T20:29:59.204Z,23.00
2019-04-06T20:32:29.208Z,31.30
2019-04-06T20:34:59.527Z,30.17
2019-04-06T20:37:29.580Z,27.17
2019-04-06T20:39:59.567Z,27.60
2019-04-06T20:42:29.662Z,27.30
2019-04-06T20:45:00.814Z,22.83
2019-04-06T20:47:30.782Z,24.03
2019-04-06T20:50:01.790Z,28.60
2019-04-06T20:52:32.697Z,26.77
2019-04-06T20:55:04.052Z,25.50
2019-04-06T20:57:34.277Z,29.40
2019-04-06T21:00:05.987Z,25.23
2019-04-06T21:02:37.752Z,28.07
2019-04-06T21:05:07.967Z,28.30
2019-04-06T21:07:38.151Z,27.60
2019-04-06T21:10:08.793Z,22.33
2019-04-06T21:12:39.547Z,23.37
2019-04-06T21:15:16.903Z,22.33
2019-04-06T21:17:41.496Z,21.80
2019-04-06T21:20:13.246Z,22.10
2019-04-06T21:22:43.686Z,25.83
2019-04-06T21:25:14.012Z,26.43
2019-04-06T21:27:44.914Z,27.47
2019-04-06T21:30:15.875Z,27.10
2019-04-06T21:32:46.384Z,26.77
2019-04-06T21:35:16.506Z,25.43
2019-04-06T21:37:46.596Z,21.70
2019-04-06T21:40:16.990Z,23.20
2019-04-06T21:42:48.535Z,23.13
2019-04-06T21:45:18.751Z,25.77
2019-04-06T21:47:49.547Z,27.53
2019-04-06T21:50:19.635Z,28.30
2019-04-06T21:52:49.716Z,24.23
2019-04-06T21:55:19.788Z,24.43
2019-04-06T21:57:49.757Z,23.80
2019-04-06T22:00:38.443Z,21.47
2019-04-06T22:03:11.121Z,26.57
2019-04-06T22:05:43.273Z,25.63
2019-04-06T22:08:15.816Z,22.60
2019-04-06T22:10:47.322Z,27.47
2019-04-06T22:13:18.367Z,26.27
2019-04-06T22:15:48.788Z,27.20
2019-04-06T22:18:19.300Z,26.90
2019-04-06T22:20:50.037Z,24.13
2019-04-06T22:23:20.804Z,25.70
2019-04-06T22:25:51.404Z,28.40
2019-04-06T22:28:21.958Z,26.23
2019-04-06T22:30:52.096Z,22.50
2019-04-06T22:33:22.432Z,21.13
2019-04-06T22:35:52.993Z,27.00
2019-04-06T22:38:24.272Z,26.00
2019-04-06T22:40:54.321Z,24.07
2019-04-06T22:43:24.913Z,25.10
2019-04-06T22:45:55.099Z,27.75
2019-04-06T22:48:25.298Z,26.87
2019-04-06T22:50:55.418Z,26.37
2019-04-06T22:53:25.464Z,27.73
2019-04-06T22:55:56.247Z,27.33
2019-04-06T22:58:27.748Z,22.23
2019-04-06T23:01:03.744Z,28.60
2019-04-06T23:04:05.176Z,27.70
2019-04-06T23:06:57.468Z,29.03
2019-04-06T23:09:27.947Z,27.80
2019-04-06T23:11:58.064Z,30.13
2019-04-06T23:14:28.417Z,30.53
2019-04-06T23:16:58.671Z,26.50
2019-04-06T23:19:30.894Z,29.23
2019-04-06T23:22:01.146Z,29.57
2019-04-06T23:24:32.950Z,25.33
2019-04-06T23:27:04.555Z,26.60
2019-04-06T23:29:34.782Z,28.97
2019-04-06T23:32:05.332Z,24.37
2019-04-06T23:34:35.509Z,21.57
2019-04-06T23:37:06.176Z,27.07
2019-04-06T23:39:36.486Z,29.10
2019-04-06T23:42:06.908Z,22.73
2019-04-06T23:44:37.335Z,25.50
2019-04-06T23:47:08.023Z,30.07
2019-04-06T23:49:38.428Z,28.50
2019-04-06T23:52:08.510Z,28.77
2019-04-06T23:54:38.560Z,20.13
2019-04-06T23:57:09.218Z,30.47
2019-04-06T23:59:39.572Z,23.47
